sensor_id;sensor_type;location;lat;lon;timestamp;temperature;humidity
67752;DHT22;54551;51.068;5.826;2023-04-01T00:01:40;10.80;99.90
67752;DHT22;54551;51.068;5.826;2023-04-01T00:04:06;10.70;99.90
67752;DHT22;54551;51.068;5.826;2023-04-01T00:06:32;10.80;99.90
67752;DHT22;54551;51.068;5.826;2023-04-01T00:08:58;10.80;99.90
67752;DHT22;54551;51.068;5.826;2023-04-01T00:11:25;10.70;99.90
67752;DHT22;54551;51.068;5.826;2023-04-01T00:13:52;10.80;99.90
67752;DHT22;54551;51.068;5.826;2023-04-01T00:16:19;10.70;99.90
67752;DHT22;54551;51.068;5.826;2023-04-01T00:18:45;10.70;99.90
67752;DHT22;54551;51.068;5.826;2023-04-01T00:21:13;10.70;99.90
67752;DHT22;54551;51.068;5.826;2023-04-01T00:23:39;10.70;99.90
67752;DHT22;54551;51.068;5.826;2023-04-01T00:26:05;10.70;99.90
67752;DHT22;54551;51.068;5.826;2023-04-01T00:28:31;10.70;99.90
67752;DHT22;54551;51.068;5.826;2023-04-01T00:31:04;10.70;99.90
67752;DHT22;54551;51.068;5.826;2023-04-01T00:33:30;10.70;99.90
67752;DHT22;54551;51.068;5.826;2023-04-01T00:35:57;10.70;99.90
67752;DHT22;54551;51.068;5.826;2023-04-01T00:38:30;10.70;99.90
67752;DHT22;54551;51.068;5.826;2023-04-01T00:40:57;10.60;99.90
67752;DHT22;54551;51.068;5.826;2023-04-01T00:43:24;10.70;99.90
67752;DHT22;54551;51.068;5.826;2023-04-01T00:45:50;10.70;99.90
67752;DHT22;54551;51.068;5.826;2023-04-01T00:48:29;10.70;99.90
67752;DHT22;54551;51.068;5.826;2023-04-01T00:51:06;10.70;99.90
67752;DHT22;54551;51.068;5.826;2023-04-01T00:53:35;10.70;99.90
67752;DHT22;54551;51.068;5.826;2023-04-01T00:56:21;10.60;99.90
67752;DHT22;54551;51.068;5.826;2023-04-01T00:58:52;10.60;99.90
67752;DHT22;54551;51.068;5.826;2023-04-01T01:01:22;10.60;99.90
67752;DHT22;54551;51.068;5.826;2023-04-01T01:03:49;10.60;99.90
67752;DHT22;54551;51.068;5.826;2023-04-01T01:09:13;10.60;99.90
67752;DHT22;54551;51.068;5.826;2023-04-01T01:22:39;10.50;99.90
67752;DHT22;54551;51.068;5.826;2023-04-01T01:27:41;10.50;99.90
67752;DHT22;54551;51.068;5.826;2023-04-01T01:30:44;10.50;99.90
67752;DHT22;54551;51.068;5.826;2023-04-01T01:35:53;10.50;99.90
67752;DHT22;54551;51.068;5.826;2023-04-01T01:38:24;10.40;99.90
67752;DHT22;54551;51.068;5.826;2023-04-01T01:41:00;10.40;99.90
67752;DHT22;54551;51.068;5.826;2023-04-01T01:43:31;10.40;99.90
67752;DHT22;54551;51.068;5.826;2023-04-01T01:46:05;10.50;99.90
67752;DHT22;54551;51.068;5.826;2023-04-01T01:48:33;10.40;99.90
67752;DHT22;54551;51.068;5.826;2023-04-01T01:51:00;10.50;99.90
67752;DHT22;54551;51.068;5.826;2023-04-01T01:53:26;10.50;99.90
67752;DHT22;54551;51.068;5.826;2023-04-01T01:55:52;10.40;99.90
67752;DHT22;54551;51.068;5.826;2023-04-01T01:58:55;10.40;99.90
67752;DHT22;54551;51.068;5.826;2023-04-01T02:01:19;10.40;99.90
67752;DHT22;54551;51.068;5.826;2023-04-01T02:03:46;10.50;99.90
67752;DHT22;54551;51.068;5.826;2023-04-01T02:06:17;10.50;99.90
67752;DHT22;54551;51.068;5.826;2023-04-01T02:08:56;10.50;99.90
67752;DHT22;54551;51.068;5.826;2023-04-01T02:14:13;10.40;99.90
67752;DHT22;54551;51.068;5.826;2023-04-01T02:19:18;10.40;99.90
67752;DHT22;54551;51.068;5.826;2023-04-01T02:21:51;10.40;99.90
67752;DHT22;54551;51.068;5.826;2023-04-01T02:24:20;10.40;99.90
67752;DHT22;54551;51.068;5.826;2023-04-01T02:26:50;10.40;99.90
67752;DHT22;54551;51.068;5.826;2023-04-01T02:29:20;10.40;99.90
67752;DHT22;54551;51.068;5.826;2023-04-01T02:31:47;10.40;99.90
67752;DHT22;54551;51.068;5.826;2023-04-01T02:34:15;10.40;99.90
67752;DHT22;54551;51.068;5.826;2023-04-01T02:36:41;10.50;99.90
67752;DHT22;54551;51.068;5.826;2023-04-01T02:39:08;10.50;99.90
67752;DHT22;54551;51.068;5.826;2023-04-01T02:41:42;10.50;99.90
67752;DHT22;54551;51.068;5.826;2023-04-01T02:44:09;10.50;99.90
67752;DHT22;54551;51.068;5.826;2023-04-01T02:46:36;10.50;99.90
67752;DHT22;54551;51.068;5.826;2023-04-01T02:49:04;10.60;99.90
67752;DHT22;54551;51.068;5.826;2023-04-01T02:51:30;10.50;99.90
67752;DHT22;54551;51.068;5.826;2023-04-01T02:53:56;10.50;99.90
67752;DHT22;54551;51.068;5.826;2023-04-01T02:56:22;10.50;99.90
67752;DHT22;54551;51.068;5.826;2023-04-01T02:58:48;10.50;99.90
67752;DHT22;54551;51.068;5.826;2023-04-01T03:01:14;10.60;99.90
67752;DHT22;54551;51.068;5.826;2023-04-01T03:03:41;10.60;99.90
67752;DHT22;54551;51.068;5.826;2023-04-01T03:06:08;10.50;99.90
67752;DHT22;54551;51.068;5.826;2023-04-01T03:08:35;10.50;99.90
67752;DHT22;54551;51.068;5.826;2023-04-01T03:11:01;10.50;99.90
67752;DHT22;54551;51.068;5.826;2023-04-01T03:13:27;10.60;99.90
67752;DHT22;54551;51.068;5.826;2023-04-01T03:15:54;10.50;99.90
67752;DHT22;54551;51.068;5.826;2023-04-01T03:18:20;10.60;99.90
67752;DHT22;54551;51.068;5.826;2023-04-01T03:20:46;10.60;99.90
67752;DHT22;54551;51.068;5.826;2023-04-01T03:23:13;10.60;99.90
67752;DHT22;54551;51.068;5.826;2023-04-01T03:25:39;10.50;99.90
67752;DHT22;54551;51.068;5.826;2023-04-01T03:28:06;10.50;99.90
67752;DHT22;54551;51.068;5.826;2023-04-01T03:30:32;10.50;99.90
67752;DHT22;54551;51.068;5.826;2023-04-01T03:32:58;10.60;99.90
67752;DHT22;54551;51.068;5.826;2023-04-01T03:35:26;10.60;99.90
67752;DHT22;54551;51.068;5.826;2023-04-01T03:37:53;10.60;99.90
67752;DHT22;54551;51.068;5.826;2023-04-01T03:40:19;10.60;99.90
67752;DHT22;54551;51.068;5.826;2023-04-01T03:42:46;10.60;99.90
67752;DHT22;54551;51.068;5.826;2023-04-01T03:45:14;10.60;99.90
67752;DHT22;54551;51.068;5.826;2023-04-01T03:47:41;10.60;99.90
67752;DHT22;54551;51.068;5.826;2023-04-01T03:50:08;10.60;99.90
67752;DHT22;54551;51.068;5.826;2023-04-01T03:52:34;10.60;99.90
67752;DHT22;54551;51.068;5.826;2023-04-01T03:55:01;10.60;99.90
67752;DHT22;54551;51.068;5.826;2023-04-01T03:57:27;10.70;99.90
67752;DHT22;54551;51.068;5.826;2023-04-01T03:59:57;10.60;99.90
67752;DHT22;54551;51.068;5.826;2023-04-01T04:02:23;10.60;99.90
67752;DHT22;54551;51.068;5.826;2023-04-01T04:04:49;10.70;99.90
67752;DHT22;54551;51.068;5.826;2023-04-01T04:07:15;10.60;99.90
67752;DHT22;54551;51.068;5.826;2023-04-01T04:10:03;10.70;99.90
67752;DHT22;54551;51.068;5.826;2023-04-01T04:12:29;10.60;99.90
67752;DHT22;54551;51.068;5.826;2023-04-01T04:14:55;10.60;99.90
67752;DHT22;54551;51.068;5.826;2023-04-01T04:17:21;10.60;99.90
67752;DHT22;54551;51.068;5.826;2023-04-01T04:19:47;10.60;99.90
67752;DHT22;54551;51.068;5.826;2023-04-01T04:22:13;10.60;99.90
67752;DHT22;54551;51.068;5.826;2023-04-01T04:24:40;10.60;99.90
67752;DHT22;54551;51.068;5.826;2023-04-01T04:27:10;10.60;99.90
67752;DHT22;54551;51.068;5.826;2023-04-01T04:29:42;10.60;99.90
67752;DHT22;54551;51.068;5.826;2023-04-01T04:32:08;10.60;99.90
67752;DHT22;54551;51.068;5.826;2023-04-01T04:34:34;10.60;99.90
67752;DHT22;54551;51.068;5.826;2023-04-01T04:37:00;10.60;99.90
67752;DHT22;54551;51.068;5.826;2023-04-01T04:39:30;10.60;99.90
67752;DHT22;54551;51.068;5.826;2023-04-01T04:41:56;10.60;99.90
67752;DHT22;54551;51.068;5.826;2023-04-01T04:44:22;10.60;99.90
67752;DHT22;54551;51.068;5.826;2023-04-01T04:46:48;10.60;99.90
67752;DHT22;54551;51.068;5.826;2023-04-01T04:49:15;10.60;99.90
67752;DHT22;54551;51.068;5.826;2023-04-01T04:51:41;10.60;99.90
67752;DHT22;54551;51.068;5.826;2023-04-01T04:54:07;10.60;99.90
67752;DHT22;54551;51.068;5.826;2023-04-01T04:57:06;10.60;99.90
67752;DHT22;54551;51.068;5.826;2023-04-01T04:59:38;10.60;99.90
67752;DHT22;54551;51.068;5.826;2023-04-01T05:02:13;10.60;99.90
67752;DHT22;54551;51.068;5.826;2023-04-01T05:04:39;10.60;99.90
67752;DHT22;54551;51.068;5.826;2023-04-01T05:07:08;10.60;99.90
67752;DHT22;54551;51.068;5.826;2023-04-01T05:09:34;10.60;99.90
67752;DHT22;54551;51.068;5.826;2023-04-01T05:12:01;10.60;99.90
67752;DHT22;54551;51.068;5.826;2023-04-01T05:14:33;10.60;99.90
67752;DHT22;54551;51.068;5.826;2023-04-01T05:17:11;10.60;99.90
67752;DHT22;54551;51.068;5.826;2023-04-01T05:19:37;10.60;99.90
67752;DHT22;54551;51.068;5.826;2023-04-01T05:22:04;10.60;99.90
67752;DHT22;54551;51.068;5.826;2023-04-01T05:24:31;10.60;99.90
67752;DHT22;54551;51.068;5.826;2023-04-01T05:26:58;10.60;99.90
67752;DHT22;54551;51.068;5.826;2023-04-01T05:29:25;10.70;99.90
67752;DHT22;54551;51.068;5.826;2023-04-01T05:31:57;10.60;99.90
67752;DHT22;54551;51.068;5.826;2023-04-01T05:34:23;10.60;99.90
67752;DHT22;54551;51.068;5.826;2023-04-01T05:36:49;10.70;99.90
67752;DHT22;54551;51.068;5.826;2023-04-01T05:39:16;10.70;99.90
67752;DHT22;54551;51.068;5.826;2023-04-01T05:41:43;10.70;99.90
67752;DHT22;54551;51.068;5.826;2023-04-01T05:44:11;10.70;99.90
67752;DHT22;54551;51.068;5.826;2023-04-01T05:46:41;10.70;99.90
67752;DHT22;54551;51.068;5.826;2023-04-01T05:49:16;10.70;99.90
67752;DHT22;54551;51.068;5.826;2023-04-01T05:51:42;10.70;99.90
67752;DHT22;54551;51.068;5.826;2023-04-01T05:54:08;10.70;99.90
67752;DHT22;54551;51.068;5.826;2023-04-01T05:56:35;10.70;99.90
67752;DHT22;54551;51.068;5.826;2023-04-01T05:59:01;10.70;99.90
67752;DHT22;54551;51.068;5.826;2023-04-01T06:01:27;10.70;99.90
67752;DHT22;54551;51.068;5.826;2023-04-01T06:03:53;10.70;99.90
67752;DHT22;54551;51.068;5.826;2023-04-01T06:06:28;10.70;99.90
67752;DHT22;54551;51.068;5.826;2023-04-01T06:09:27;10.70;99.90
67752;DHT22;54551;51.068;5.826;2023-04-01T06:23:19;10.70;99.90
67752;DHT22;54551;51.068;5.826;2023-04-01T06:28:56;10.70;99.90
67752;DHT22;54551;51.068;5.826;2023-04-01T06:34:20;10.80;99.90
67752;DHT22;54551;51.068;5.826;2023-04-01T06:42:58;10.80;99.90
67752;DHT22;54551;51.068;5.826;2023-04-01T06:52:02;10.80;99.90
67752;DHT22;54551;51.068;5.826;2023-04-01T06:54:55;10.80;99.90
67752;DHT22;54551;51.068;5.826;2023-04-01T06:57:45;10.90;99.90
67752;DHT22;54551;51.068;5.826;2023-04-01T07:00:30;10.90;99.90
67752;DHT22;54551;51.068;5.826;2023-04-01T07:03:40;10.80;99.90
67752;DHT22;54551;51.068;5.826;2023-04-01T07:05:46;10.80;99.90
67752;DHT22;54551;51.068;5.826;2023-04-01T07:08:19;10.80;99.90
67752;DHT22;54551;51.068;5.826;2023-04-01T07:10:59;10.90;99.90
67752;DHT22;54551;51.068;5.826;2023-04-01T07:19:22;10.80;99.90
67752;DHT22;54551;51.068;5.826;2023-04-01T07:22:05;10.80;99.90
67752;DHT22;54551;51.068;5.826;2023-04-01T07:25:15;10.80;99.90
67752;DHT22;54551;51.068;5.826;2023-04-01T07:27:45;10.70;99.90
67752;DHT22;54551;51.068;5.826;2023-04-01T07:30:20;10.80;99.90
67752;DHT22;54551;51.068;5.826;2023-04-01T07:35:36;10.80;99.90
67752;DHT22;54551;51.068;5.826;2023-04-01T07:46:17;10.90;99.90
67752;DHT22;54551;51.068;5.826;2023-04-01T07:49:10;11.00;99.90
67752;DHT22;54551;51.068;5.826;2023-04-01T07:51:56;11.10;99.90
67752;DHT22;54551;51.068;5.826;2023-04-01T07:57:23;11.20;99.90
67752;DHT22;54551;51.068;5.826;2023-04-01T08:00:08;11.20;99.90
67752;DHT22;54551;51.068;5.826;2023-04-01T08:06:42;11.20;99.90
67752;DHT22;54551;51.068;5.826;2023-04-01T08:15:29;11.30;99.90
67752;DHT22;54551;51.068;5.826;2023-04-01T08:20:44;11.40;99.90
67752;DHT22;54551;51.068;5.826;2023-04-01T08:23:36;11.40;99.90
67752;DHT22;54551;51.068;5.826;2023-04-01T08:29:11;11.50;99.90
67752;DHT22;54551;51.068;5.826;2023-04-01T08:32:06;11.50;99.90
67752;DHT22;54551;51.068;5.826;2023-04-01T08:34:38;11.50;99.90
67752;DHT22;54551;51.068;5.826;2023-04-01T08:37:26;11.50;99.90
67752;DHT22;54551;51.068;5.826;2023-04-01T08:40:00;11.50;99.90
67752;DHT22;54551;51.068;5.826;2023-04-01T08:56:26;12.00;99.90
67752;DHT22;54551;51.068;5.826;2023-04-01T08:59:20;12.10;99.90
67752;DHT22;54551;51.068;5.826;2023-04-01T09:08:01;12.10;99.90
67752;DHT22;54551;51.068;5.826;2023-04-01T09:26:30;12.00;99.90
67752;DHT22;54551;51.068;5.826;2023-04-01T09:28:28;12.00;99.90
67752;DHT22;54551;51.068;5.826;2023-04-01T09:48:22;12.00;99.90
67752;DHT22;54551;51.068;5.826;2023-04-01T10:03:47;12.00;99.90
67752;DHT22;54551;51.068;5.826;2023-04-01T10:11:21;12.10;99.90
67752;DHT22;54551;51.068;5.826;2023-04-01T10:25:40;12.30;99.90
67752;DHT22;54551;51.068;5.826;2023-04-01T10:28:34;12.30;99.90
67752;DHT22;54551;51.068;5.826;2023-04-01T10:54:51;12.90;99.90
67752;DHT22;54551;51.068;5.826;2023-04-01T11:16:51;13.10;99.90
67752;DHT22;54551;51.068;5.826;2023-04-01T11:19:18;13.20;99.90
67752;DHT22;54551;51.068;5.826;2023-04-01T11:22:14;13.20;99.90
67752;DHT22;54551;51.068;5.826;2023-04-01T11:31:00;13.00;99.90
67752;DHT22;54551;51.068;5.826;2023-04-01T11:45:23;13.10;99.90
67752;DHT22;54551;51.068;5.826;2023-04-01T11:53:18;13.20;99.90
67752;DHT22;54551;51.068;5.826;2023-04-01T12:01:29;13.40;99.90
67752;DHT22;54551;51.068;5.826;2023-04-01T12:04:30;13.30;99.90
67752;DHT22;54551;51.068;5.826;2023-04-01T12:07:11;13.30;99.90
67752;DHT22;54551;51.068;5.826;2023-04-01T12:28:08;14.10;99.90
67752;DHT22;54551;51.068;5.826;2023-04-01T12:39:18;14.10;99.90
67752;DHT22;54551;51.068;5.826;2023-04-01T12:41:53;14.00;99.90
67752;DHT22;54551;51.068;5.826;2023-04-01T12:44:55;14.00;99.90
67752;DHT22;54551;51.068;5.826;2023-04-01T13:06:53;14.50;99.90
67752;DHT22;54551;51.068;5.826;2023-04-01T13:20:22;14.80;99.90
67752;DHT22;54551;51.068;5.826;2023-04-01T13:23:19;14.80;99.90
67752;DHT22;54551;51.068;5.826;2023-04-01T13:28:32;14.50;99.90
67752;DHT22;54551;51.068;5.826;2023-04-01T13:42:23;13.50;99.90
67752;DHT22;54551;51.068;5.826;2023-04-01T13:45:12;13.40;99.90
67752;DHT22;54551;51.068;5.826;2023-04-01T13:50:57;13.50;99.90
67752;DHT22;54551;51.068;5.826;2023-04-01T13:54:07;13.40;99.90
67752;DHT22;54551;51.068;5.826;2023-04-01T14:11:18;13.20;99.90
67752;DHT22;54551;51.068;5.826;2023-04-01T14:30:29;13.10;99.90
67752;DHT22;54551;51.068;5.826;2023-04-01T14:41:38;12.90;99.90
67752;DHT22;54551;51.068;5.826;2023-04-01T14:50:18;12.80;99.90
67752;DHT22;54551;51.068;5.826;2023-04-01T15:01:06;12.90;99.90
67752;DHT22;54551;51.068;5.826;2023-04-01T15:03:40;12.80;99.90
67752;DHT22;54551;51.068;5.826;2023-04-01T15:09:22;12.60;99.90
67752;DHT22;54551;51.068;5.826;2023-04-01T15:22:15;12.20;99.90
67752;DHT22;54551;51.068;5.826;2023-04-01T15:28:05;12.20;99.90
67752;DHT22;54551;51.068;5.826;2023-04-01T15:31:16;12.20;99.90
67752;DHT22;54551;51.068;5.826;2023-04-01T15:33:46;12.20;99.90
67752;DHT22;54551;51.068;5.826;2023-04-01T15:41:24;12.20;99.90
67752;DHT22;54551;51.068;5.826;2023-04-01T15:43:52;12.20;99.90
67752;DHT22;54551;51.068;5.826;2023-04-01T15:49:08;12.30;99.90
67752;DHT22;54551;51.068;5.826;2023-04-01T16:00:30;12.40;99.90
67752;DHT22;54551;51.068;5.826;2023-04-01T16:11:14;12.40;99.90
67752;DHT22;54551;51.068;5.826;2023-04-01T16:16:53;12.20;99.90
67752;DHT22;54551;51.068;5.826;2023-04-01T16:22:00;12.10;99.90
67752;DHT22;54551;51.068;5.826;2023-04-01T16:24:48;12.10;99.90
67752;DHT22;54551;51.068;5.826;2023-04-01T16:27:30;12.10;99.90
67752;DHT22;54551;51.068;5.826;2023-04-01T16:33:10;11.90;99.90
67752;DHT22;54551;51.068;5.826;2023-04-01T16:41:11;11.70;99.90
67752;DHT22;54551;51.068;5.826;2023-04-01T16:43:42;11.70;99.90
67752;DHT22;54551;51.068;5.826;2023-04-01T16:57:19;11.60;99.90
67752;DHT22;54551;51.068;5.826;2023-04-01T17:00:03;11.50;99.90
67752;DHT22;54551;51.068;5.826;2023-04-01T17:02:52;11.50;99.90
67752;DHT22;54551;51.068;5.826;2023-04-01T17:05:58;11.50;99.90
67752;DHT22;54551;51.068;5.826;2023-04-01T17:08:31;11.40;99.90
67752;DHT22;54551;51.068;5.826;2023-04-01T17:11:19;11.40;99.90
67752;DHT22;54551;51.068;5.826;2023-04-01T17:25:06;11.20;99.90
67752;DHT22;54551;51.068;5.826;2023-04-01T17:38:48;11.20;99.90
67752;DHT22;54551;51.068;5.826;2023-04-01T17:41:19;11.20;99.90
67752;DHT22;54551;51.068;5.826;2023-04-01T17:49:34;11.10;99.90
67752;DHT22;54551;51.068;5.826;2023-04-01T17:55:18;11.10;99.90
67752;DHT22;54551;51.068;5.826;2023-04-01T17:57:56;11.10;99.90
67752;DHT22;54551;51.068;5.826;2023-04-01T18:00:39;11.10;99.90
67752;DHT22;54551;51.068;5.826;2023-04-01T18:08:43;11.00;99.90
67752;DHT22;54551;51.068;5.826;2023-04-01T18:14:43;11.00;99.90
67752;DHT22;54551;51.068;5.826;2023-04-01T18:20:28;10.90;99.90
67752;DHT22;54551;51.068;5.826;2023-04-01T18:23:03;10.90;99.90
67752;DHT22;54551;51.068;5.826;2023-04-01T18:38:55;10.70;99.90
67752;DHT22;54551;51.068;5.826;2023-04-01T18:44:46;10.80;99.90
67752;DHT22;54551;51.068;5.826;2023-04-01T18:50:24;10.70;99.90
67752;DHT22;54551;51.068;5.826;2023-04-01T18:53:08;10.70;99.90
67752;DHT22;54551;51.068;5.826;2023-04-01T18:55:50;10.70;99.90
67752;DHT22;54551;51.068;5.826;2023-04-01T18:58:42;10.70;99.90
67752;DHT22;54551;51.068;5.826;2023-04-01T19:06:51;10.70;99.90
67752;DHT22;54551;51.068;5.826;2023-04-01T19:09:24;10.70;99.90
67752;DHT22;54551;51.068;5.826;2023-04-01T19:17:32;10.70;99.90
67752;DHT22;54551;51.068;5.826;2023-04-01T19:20:09;10.70;99.90
67752;DHT22;54551;51.068;5.826;2023-04-01T19:25:39;10.80;99.90
67752;DHT22;54551;51.068;5.826;2023-04-01T19:31:03;10.70;99.90
67752;DHT22;54551;51.068;5.826;2023-04-01T19:33:59;10.70;99.90
67752;DHT22;54551;51.068;5.826;2023-04-01T19:41:34;10.70;99.90
67752;DHT22;54551;51.068;5.826;2023-04-01T19:46:53;10.80;99.90
67752;DHT22;54551;51.068;5.826;2023-04-01T19:54:52;10.80;99.90
67752;DHT22;54551;51.068;5.826;2023-04-01T20:19:48;10.70;99.90
67752;DHT22;54551;51.068;5.826;2023-04-01T20:22:33;10.70;99.90
67752;DHT22;54551;51.068;5.826;2023-04-01T20:27:54;10.70;99.90
67752;DHT22;54551;51.068;5.826;2023-04-01T20:30:46;10.70;99.90
67752;DHT22;54551;51.068;5.826;2023-04-01T20:37:00;10.60;99.90
67752;DHT22;54551;51.068;5.826;2023-04-01T20:48:19;10.50;99.90
67752;DHT22;54551;51.068;5.826;2023-04-01T20:51:08;10.50;99.90
67752;DHT22;54551;51.068;5.826;2023-04-01T21:05:33;10.40;99.90
67752;DHT22;54551;51.068;5.826;2023-04-01T21:30:40;10.10;99.90
67752;DHT22;54551;51.068;5.826;2023-04-01T21:47:34;10.00;99.90
67752;DHT22;54551;51.068;5.826;2023-04-01T22:07:00;9.80;99.90
67752;DHT22;54551;51.068;5.826;2023-04-01T22:09:34;9.80;99.90
67752;DHT22;54551;51.068;5.826;2023-04-01T22:12:12;9.80;99.90
67752;DHT22;54551;51.068;5.826;2023-04-01T22:14:53;9.70;99.90
67752;DHT22;54551;51.068;5.826;2023-04-01T22:28:07;9.70;99.90
67752;DHT22;54551;51.068;5.826;2023-04-01T22:30:42;9.70;99.90
67752;DHT22;54551;51.068;5.826;2023-04-01T22:36:12;9.60;99.90
67752;DHT22;54551;51.068;5.826;2023-04-01T22:39:15;9.60;99.90
67752;DHT22;54551;51.068;5.826;2023-04-01T22:44:51;9.40;99.90
67752;DHT22;54551;51.068;5.826;2023-04-01T22:55:49;9.30;99.90
67752;DHT22;54551;51.068;5.826;2023-04-01T22:58:31;9.30;99.90
67752;DHT22;54551;51.068;5.826;2023-04-01T23:01:04;9.30;99.90
67752;DHT22;54551;51.068;5.826;2023-04-01T23:03:33;9.30;99.90
67752;DHT22;54551;51.068;5.826;2023-04-01T23:06:04;9.20;99.90
67752;DHT22;54551;51.068;5.826;2023-04-01T23:11:19;9.20;99.90
67752;DHT22;54551;51.068;5.826;2023-04-01T23:13:54;9.30;99.90
67752;DHT22;54551;51.068;5.826;2023-04-01T23:16:32;9.20;99.90
67752;DHT22;54551;51.068;5.826;2023-04-01T23:19:31;9.20;99.90
67752;DHT22;54551;51.068;5.826;2023-04-01T23:28:14;9.30;99.90
67752;DHT22;54551;51.068;5.826;2023-04-01T23:38:36;8.90;99.90
67752;DHT22;54551;51.068;5.826;2023-04-01T23:41:03;9.00;99.90
67752;DHT22;54551;51.068;5.826;2023-04-01T23:43:32;8.90;99.90
67752;DHT22;54551;51.068;5.826;2023-04-01T23:46:01;8.90;99.90
67752;DHT22;54551;51.068;5.826;2023-04-01T23:48:41;8.80;99.90
67752;DHT22;54551;51.068;5.826;2023-04-01T23:51:29;8.70;99.90
67752;DHT22;54551;51.068;5.826;2023-04-01T23:56:45;8.60;99.90
67752;DHT22;54551;51.068;5.826;2023-04-01T23:59:23;8.50;99.90
